Time;durP1;ratioP1;P1;durP2;ratioP2;P2;SDS_P1;SDS_P2;PMS_P1;PMS_P2;Temp;Humidity;BMP_temperature;BMP_pressure;BME280_temperature;BME280_humidity;BME280_pressure;Samples;Min_cycle;Max_cycle;Signal;HPM_P1;HPM_P2
2023/08/04 00:02:08;;;;;;;2.10;2.00;;;16.00;99.90;;;;;;1994050;72;25195;-89
2023/08/04 00:04:56;;;;;;;2.43;2.17;;;16.00;99.90;;;;;;1988364;72;25144;-89
2023/08/04 00:07:45;;;;;;;2.87;2.43;;;16.00;99.90;;;;;;2018239;70;25293;-89
2023/08/04 00:27:33;;;;;;;3.20;2.53;;;16.10;99.90;;;;;;1971844;72;27302;-89
2023/08/04 00:30:22;;;;;;;4.47;2.40;;;16.10;99.90;;;;;;1983940;71;25478;-89
2023/08/04 00:33:11;;;;;;;8.47;2.40;;;16.10;99.90;;;;;;1992710;72;25866;-89
2023/08/04 00:35:59;;;;;;;4.77;2.37;;;16.10;99.90;;;;;;1990020;72;25276;-89
2023/08/04 00:38:48;;;;;;;3.23;2.40;;;16.10;99.90;;;;;;1985701;72;26519;-89
2023/08/04 00:41:37;;;;;;;2.80;2.60;;;16.10;99.90;;;;;;2011521;70;25471;-89
2023/08/04 00:44:25;;;;;;;4.13;2.30;;;16.10;99.90;;;;;;2013121;70;25251;-89
2023/08/04 00:47:15;;;;;;;4.80;2.40;;;16.10;99.90;;;;;;2018903;70;25730;-89
2023/08/04 00:54:24;;;;;;;2.80;2.40;;;16.10;99.90;;;;;;1991002;71;26855;-89
2023/08/04 00:57:13;;;;;;;2.50;2.30;;;16.10;99.90;;;;;;2025803;70;25183;-89
2023/08/04 01:00:02;;;;;;;4.60;2.50;;;16.10;99.90;;;;;;2034035;70;25136;-89
2023/08/04 01:02:52;;;;;;;4.37;2.67;;;16.10;99.90;;;;;;2028909;70;25277;-89
2023/08/04 01:23:26;;;;;;;5.93;2.60;;;16.10;99.90;;;;;;1957702;71;26763;-89
2023/08/04 01:26:15;;;;;;;3.00;2.70;;;16.10;99.90;;;;;;1964615;72;25237;-89
2023/08/04 01:29:04;;;;;;;2.80;2.60;;;16.00;99.90;;;;;;1948845;72;25721;-89
2023/08/04 01:34:41;;;;;;;2.73;2.43;;;16.00;99.90;;;;;;1947065;72;26908;-89
2023/08/04 01:55:21;;;;;;;2.60;2.40;;;16.10;99.90;;;;;;1983777;71;27047;-90
2023/08/04 01:58:10;;;;;;;2.90;2.40;;;16.10;99.90;;;;;;1959953;72;25176;-89
2023/08/04 02:00:59;;;;;;;7.13;2.70;;;16.10;99.90;;;;;;2047572;69;25535;-89
2023/08/04 02:03:48;;;;;;;2.60;2.40;;;16.10;99.90;;;;;;2032777;69;25684;-90
2023/08/04 02:06:37;;;;;;;4.87;2.47;;;16.00;99.90;;;;;;2055086;69;25150;-90
2023/08/04 02:09:27;;;;;;;2.80;2.60;;;16.10;99.90;;;;;;2037881;69;25801;-89
2023/08/04 02:12:16;;;;;;;6.13;2.43;;;16.10;99.90;;;;;;2037511;69;25223;-89
2023/08/04 02:15:06;;;;;;;3.83;2.80;;;16.10;99.90;;;;;;2045182;69;25708;-89
2023/08/04 02:17:55;;;;;;;2.97;2.60;;;16.10;99.90;;;;;;2049023;69;25188;-89
2023/08/04 02:23:37;;;;;;;4.53;2.73;;;16.00;99.90;;;;;;1970600;72;26954;-89
2023/08/04 02:26:26;;;;;;;3.40;2.90;;;16.00;99.90;;;;;;1937880;73;25277;-89
2023/08/04 02:29:15;;;;;;;8.13;2.80;;;16.10;99.90;;;;;;1922999;73;25319;-89
2023/08/04 03:03:19;;;;;;;5.43;2.90;;;16.10;99.90;;;;;;1962376;71;26716;-89
2023/08/04 03:06:07;;;;;;;4.57;2.77;;;16.10;99.90;;;;;;1985230;72;25146;-89
2023/08/04 03:08:56;;;;;;;2.80;2.47;;;16.00;99.90;;;;;;1983658;72;25684;-89
2023/08/04 03:11:45;;;;;;;8.13;2.57;;;16.00;99.90;;;;;;1977621;72;25228;-90
2023/08/04 03:31:39;;;;;;;4.30;2.90;;;15.90;99.90;;;;;;1949700;72;27132;-90
2023/08/04 03:34:27;;;;;;;3.70;2.93;;;15.90;99.90;;;;;;1920815;73;25825;-89
2023/08/04 03:37:17;;;;;;;5.60;2.60;;;15.90;99.90;;;;;;1937286;73;25302;-89
2023/08/04 03:40:07;;;;;;;4.20;3.00;;;15.90;99.90;;;;;;1916408;73;25217;-89
2023/08/04 03:42:56;;;;;;;4.50;2.80;;;15.90;99.90;;;;;;1916680;73;25266;-89
2023/08/04 03:45:44;;;;;;;2.87;2.63;;;15.90;99.90;;;;;;1891007;75;25270;-90
2023/08/04 03:48:33;;;;;;;3.10;2.80;;;15.90;99.90;;;;;;1907047;75;25690;-89
2023/08/04 03:54:03;;;;;;;3.67;2.60;;;15.90;99.90;;;;;;1894072;74;27097;-89
2023/08/04 03:56:51;;;;;;;3.30;2.80;;;15.90;99.90;;;;;;1827222;77;25295;-89
2023/08/04 03:59:39;;;;;;;3.00;2.80;;;15.90;99.90;;;;;;1837449;77;25246;-90
2023/08/04 04:15:56;;;;;;;3.17;2.90;;;15.90;99.90;;;;;;1868690;75;27084;-89
2023/08/04 04:21:26;;;;;;;4.37;3.20;;;16.00;99.90;;;;;;1942229;72;27004;-89
2023/08/04 04:24:14;;;;;;;5.37;2.90;;;16.10;99.90;;;;;;1890424;75;25268;-90
2023/08/04 04:27:02;;;;;;;5.30;3.47;;;16.10;99.90;;;;;;1895920;75;25297;-90
2023/08/04 04:29:51;;;;;;;5.17;3.17;;;16.20;99.90;;;;;;1900995;75;25172;-91
2023/08/04 04:32:40;;;;;;;6.77;2.80;;;16.30;99.90;;;;;;1887311;75;25184;-90
2023/08/04 04:35:29;;;;;;;3.93;3.23;;;16.30;99.90;;;;;;1893667;75;25267;-90
2023/08/04 04:41:04;;;;;;;3.93;2.97;;;16.30;99.90;;;;;;1940845;72;27758;-89
2023/08/04 04:46:36;;;;;;;2.50;2.30;;;16.40;99.90;;;;;;1935287;72;27116;-89
2023/08/04 04:49:24;;;;;;;3.97;2.80;;;16.40;99.90;;;;;;1900642;74;25218;-90
2023/08/04 04:55:03;;;;;;;6.17;2.80;;;16.40;99.90;;;;;;1944389;72;27471;-89
2023/08/04 04:57:52;;;;;;;3.17;2.70;;;16.40;99.90;;;;;;1915884;73;25180;-89
2023/08/04 05:00:41;;;;;;;2.80;2.60;;;16.40;99.90;;;;;;1895115;75;25656;-90
2023/08/04 05:03:33;;;;;;;5.43;2.27;;;16.50;99.90;;;;;;1882485;74;25206;-89
2023/08/04 05:06:24;;;;;;;5.97;2.50;;;16.50;99.90;;;;;;1939568;72;25168;-90
2023/08/04 05:09:13;;;;;;;6.63;2.80;;;16.60;99.90;;;;;;1917025;73;25339;-90
2023/08/04 05:12:02;;;;;;;8.57;2.50;;;16.60;99.90;;;;;;1935531;73;25156;-90
2023/08/04 05:14:50;;;;;;;4.17;2.30;;;16.70;99.90;;;;;;1935728;73;25191;-90
2023/08/04 05:17:39;;;;;;;3.67;2.47;;;16.70;99.90;;;;;;1939695;73;25277;-90
2023/08/04 05:23:22;;;;;;;2.97;2.30;;;17.10;99.90;;;;;;1948227;72;26853;-89
2023/08/04 05:26:11;;;;;;;2.90;2.40;;;17.40;99.90;;;;;;1930808;73;25166;-89
2023/08/04 05:31:54;;;;;;;2.40;2.20;;;17.20;99.90;;;;;;1961719;72;27574;-89
2023/08/04 05:34:43;;;;;;;3.93;2.30;;;17.20;99.90;;;;;;1879973;76;25188;-89
2023/08/04 05:37:33;;;;;;;3.67;2.30;;;17.20;99.90;;;;;;1891407;75;25179;-89
2023/08/04 05:40:23;;;;;;;4.27;2.30;;;17.20;99.90;;;;;;1851579;76;25189;-89
2023/08/04 05:43:12;;;;;;;4.90;2.50;;;17.20;99.90;;;;;;1835071;77;25894;-89
2023/08/04 05:49:20;;;;;;;3.73;2.43;;;17.40;99.90;;;;;;1988474;71;27070;-89
2023/08/04 05:52:09;;;;;;;5.40;2.37;;;17.40;99.90;;;;;;1912172;75;25176;-89
2023/08/04 05:54:58;;;;;;;2.37;2.17;;;17.60;99.90;;;;;;1964671;72;25192;-87
2023/08/04 05:57:47;;;;;;;5.43;2.17;;;17.60;99.90;;;;;;1963894;72;25257;-89
2023/08/04 06:00:37;;;;;;;3.70;2.37;;;17.60;99.90;;;;;;1967354;72;25270;-91
2023/08/04 06:03:26;;;;;;;4.03;2.53;;;17.70;99.90;;;;;;1965590;72;25644;-90
2023/08/04 06:06:14;;;;;;;3.57;2.47;;;18.00;99.90;;;;;;1969090;72;25227;-90
2023/08/04 06:09:03;;;;;;;4.20;1.90;;;18.00;99.90;;;;;;1955854;72;25216;-90
2023/08/04 06:11:55;;;;;;;2.73;2.30;;;18.10;99.90;;;;;;1982219;72;25239;-89
2023/08/04 06:14:45;;;;;;;4.07;2.33;;;18.20;99.90;;;;;;1975876;72;25218;-90
2023/08/04 06:17:34;;;;;;;6.07;2.30;;;18.20;99.90;;;;;;1955697;72;25291;-90
2023/08/04 06:23:07;;;;;;;4.47;2.10;;;18.50;99.90;;;;;;1925432;72;26999;-89
2023/08/04 06:25:56;;;;;;;4.23;2.20;;;18.70;99.90;;;;;;1910346;74;25213;-89
2023/08/04 06:31:30;;;;;;;3.33;2.23;;;18.80;99.90;;;;;;1940589;72;27072;-89
2023/08/04 06:34:18;;;;;;;2.43;2.00;;;18.70;99.90;;;;;;1913383;73;25725;-89
2023/08/04 06:37:08;;;;;;;10.13;2.10;;;18.90;99.90;;;;;;1915020;73;25207;-89
2023/08/04 06:39:56;;;;;;;2.23;2.00;;;18.90;99.90;;;;;;1904587;74;25763;-89
2023/08/04 06:42:45;;;;;;;2.27;2.07;;;18.90;99.90;;;;;;1908217;74;25290;-89
2023/08/04 06:45:33;;;;;;;2.50;2.00;;;19.10;99.90;;;;;;1918788;73;25209;-89
2023/08/04 06:48:24;;;;;;;6.63;2.40;;;19.00;99.90;;;;;;1896748;74;25238;-89
2023/08/04 06:51:12;;;;;;;4.60;2.13;;;18.90;99.90;;;;;;1897523;74;25180;-89
2023/08/04 06:54:02;;;;;;;2.63;1.90;;;19.00;99.90;;;;;;1885129;74;25216;-89
2023/08/04 06:56:51;;;;;;;4.57;2.07;;;19.00;99.90;;;;;;1909917;73;25230;-89
2023/08/04 07:02:24;;;;;;;4.70;2.17;;;19.40;99.90;;;;;;1906169;74;27071;-89
2023/08/04 07:07:56;;;;;;;2.20;1.80;;;19.50;99.90;;;;;;2026208;69;26952;-90
2023/08/04 07:10:46;;;;;;;3.30;2.00;;;20.00;99.90;;;;;;1982399;72;25237;-89
2023/08/04 07:13:35;;;;;;;5.27;1.80;;;20.00;99.90;;;;;;1969124;72;25225;-89
2023/08/04 07:16:24;;;;;;;3.67;1.90;;;20.20;99.90;;;;;;1957331;72;25218;-90
2023/08/04 07:19:12;;;;;;;2.00;1.80;;;20.10;99.90;;;;;;1899641;75;25708;-90
2023/08/04 07:22:01;;;;;;;2.43;1.87;;;20.10;99.90;;;;;;1901306;74;25243;-89
2023/08/04 07:24:53;;;;;;;2.27;2.07;;;20.10;99.90;;;;;;1896308;75;25816;-89
2023/08/04 07:34:26;;;;;;;2.87;1.80;;;19.80;99.90;;;;;;1981858;71;26305;-89
2023/08/04 07:37:15;;;;;;;1.90;1.80;;;19.90;99.90;;;;;;1963583;72;25738;-90
2023/08/04 07:40:04;;;;;;;2.10;1.80;;;19.90;99.90;;;;;;1992307;71;25174;-90
2023/08/04 07:42:52;;;;;;;2.20;2.00;;;20.20;99.90;;;;;;2053183;69;25647;-90
2023/08/04 07:45:40;;;;;;;5.57;1.87;;;19.80;99.90;;;;;;2055444;69;25253;-90
2023/08/04 07:48:29;;;;;;;1.93;1.70;;;19.90;99.90;;;;;;2036076;69;25220;-90
2023/08/04 07:54:00;;;;;;;1.90;1.70;;;20.10;99.90;;;;;;1934138;72;26871;-89
2023/08/04 07:56:49;;;;;;;1.93;1.70;;;19.90;99.90;;;;;;1892730;75;25440;-89
2023/08/04 08:02:17;;;;;;;2.40;1.53;;;19.90;99.90;;;;;;1930428;72;26974;-90
2023/08/04 08:05:08;;;;;;;2.80;1.80;;;20.10;99.90;;;;;;1891119;75;25272;-89
2023/08/04 08:07:57;;;;;;;5.10;1.90;;;20.10;99.90;;;;;;1904972;75;25167;-90
2023/08/04 08:10:46;;;;;;;3.13;1.67;;;20.20;99.90;;;;;;1892653;73;25205;-89
2023/08/04 08:13:34;;;;;;;2.17;1.67;;;20.20;99.90;;;;;;1920255;73;25214;-88
2023/08/04 08:16:22;;;;;;;2.73;1.70;;;20.30;99.90;;;;;;1908825;75;25288;-88
2023/08/04 08:19:11;;;;;;;1.93;1.77;;;20.30;99.90;;;;;;1915905;73;25178;-89
2023/08/04 08:22:00;;;;;;;1.73;1.63;;;20.40;99.90;;;;;;1910661;73;25258;-89
2023/08/04 08:24:50;;;;;;;3.33;1.70;;;20.40;99.90;;;;;;1901517;73;25240;-89
2023/08/04 08:31:51;;;;;;;1.83;1.70;;;20.70;99.90;;;;;;1960651;71;26379;-89
2023/08/04 08:34:39;;;;;;;2.13;1.63;;;21.00;99.90;;;;;;1950315;72;25291;-89
2023/08/04 08:37:28;;;;;;;1.63;1.53;;;20.90;99.90;;;;;;1988473;72;25717;-89
2023/08/04 08:40:18;;;;;;;2.00;1.80;;;20.90;99.90;;;;;;1962359;72;25164;-89
2023/08/04 08:43:08;;;;;;;5.00;1.80;;;21.10;99.90;;;;;;1917140;73;25283;-89
2023/08/04 08:45:58;;;;;;;2.67;1.90;;;21.10;99.90;;;;;;1956823;73;25250;-89
2023/08/04 08:48:51;;;;;;;3.07;2.00;;;21.00;99.90;;;;;;1952131;73;25152;-89
2023/08/04 08:54:21;;;;;;;2.73;1.57;;;21.30;99.90;;;;;;2044827;69;27000;-90
2023/08/04 08:57:10;;;;;;;2.10;1.90;;;21.20;99.90;;;;;;1979725;71;25208;-89
2023/08/04 09:00:03;;;;;;;2.70;1.83;;;20.90;99.90;;;;;;1983567;71;25273;-89
2023/08/04 09:05:33;;;;;;;3.93;1.87;;;21.20;99.90;;;;;;1942168;72;27037;-89
2023/08/04 09:08:22;;;;;;;3.20;1.70;;;21.20;99.90;;;;;;1942253;72;25228;-89
2023/08/04 09:11:11;;;;;;;4.47;2.00;;;21.30;99.90;;;;;;1930792;72;25661;-90
2023/08/04 09:14:03;;;;;;;2.23;1.80;;;21.40;99.90;;;;;;1941567;73;25735;-90
2023/08/04 09:16:52;;;;;;;2.13;1.93;;;21.70;99.90;;;;;;1924713;73;25726;-90
2023/08/04 09:19:41;;;;;;;2.97;1.87;;;22.20;99.90;;;;;;1944025;72;25320;-90
2023/08/04 09:22:34;;;;;;;2.20;1.60;;;22.50;99.90;;;;;;1933127;72;25317;-90
2023/08/04 09:25:22;;;;;;;5.13;1.80;;;22.50;99.90;;;;;;1935613;72;25233;-90
2023/08/04 09:28:18;;;;;;;1.87;1.50;;;22.40;99.90;;;;;;1926792;72;25248;-89
2023/08/04 09:31:08;;;;;;;1.90;1.70;;;21.80;99.90;;;;;;1939182;72;25262;-90
2023/08/04 09:36:52;;;;;;;2.40;1.60;;;21.70;99.90;;;;;;1974478;72;26919;-90
2023/08/04 09:39:48;;;;;;;3.20;1.70;;;21.60;99.90;;;;;;1929610;73;25313;-89
2023/08/04 09:42:40;;;;;;;2.83;1.87;;;21.60;99.90;;;;;;1912207;73;25218;-89
2023/08/04 09:45:30;;;;;;;4.60;1.60;;;21.80;99.90;;;;;;1908646;74;25235;-89
2023/08/04 09:51:14;;;;;;;1.70;1.60;;;22.00;99.90;;;;;;1944384;72;26998;-89
2023/08/04 09:56:48;;;;;;;4.40;1.90;;;22.40;99.90;;;;;;1938668;72;27017;-89
2023/08/04 09:59:38;;;;;;;5.00;1.60;;;22.70;99.90;;;;;;1905517;75;25202;-89
2023/08/04 10:02:28;;;;;;;1.87;1.60;;;22.60;99.90;;;;;;1877711;76;25193;-89
2023/08/04 10:05:17;;;;;;;1.43;1.33;;;22.20;99.90;;;;;;1837215;76;25857;-89
2023/08/04 10:08:08;;;;;;;1.80;1.70;;;22.10;99.90;;;;;;1894136;73;25191;-89
2023/08/04 10:10:57;;;;;;;3.03;1.60;;;22.10;99.90;;;;;;1900780;73;25229;-90
2023/08/04 10:13:49;;;;;;;1.40;1.30;;;22.30;99.90;;;;;;1904913;74;25238;-89
2023/08/04 10:16:40;;;;;;;2.00;1.47;;;22.40;99.90;;;;;;1908291;73;25227;-89
2023/08/04 10:19:30;;;;;;;1.53;1.43;;;22.40;99.90;;;;;;1878578;75;25824;-89
2023/08/04 10:22:18;;;;;;;2.73;1.40;;;22.50;99.90;;;;;;1837304;76;25211;-89
2023/08/04 10:25:15;;;;;;;4.47;1.70;;;22.50;99.90;;;;;;1857553;76;26629;-89
2023/08/04 10:31:18;;;;;;;1.97;1.80;;;22.50;99.90;;;;;;1974280;71;26896;-89
2023/08/04 10:34:28;;;;;;;1.57;1.43;;;22.40;99.90;;;;;;2022123;70;25258;-89
2023/08/04 10:37:18;;;;;;;4.13;1.60;;;22.40;99.90;;;;;;2018151;70;25167;-89
2023/08/04 10:43:02;;;;;;;2.10;1.20;;;22.10;99.90;;;;;;1943481;72;27497;-89
2023/08/04 10:46:02;;;;;;;4.00;1.60;;;22.10;99.90;;;;;;1914896;74;25186;-89
2023/08/04 10:48:45;;;;;;;2.67;1.30;;;22.10;99.90;;;;;;1897324;75;25223;-89
2023/08/04 10:55:22;;;;;;;2.03;1.40;;;22.00;99.90;;;;;;2000053;70;26246;-89
2023/08/04 10:58:16;;;;;;;3.07;1.53;;;22.20;99.90;;;;;;2000554;71;25269;-88
2023/08/04 11:03:56;;;;;;;1.50;1.40;;;23.00;99.90;;;;;;2022582;69;26978;-90
2023/08/04 11:06:45;;;;;;;1.40;1.30;;;23.10;99.90;;;;;;2003097;70;25315;-89
2023/08/04 11:12:15;;;;;;;2.00;1.40;;;22.80;99.90;;;;;;1961300;72;27028;-89
2023/08/04 11:28:11;;;;;;;3.63;1.60;;;22.80;99.90;;;;;;2037545;69;27020;-90
2023/08/04 11:33:46;;;;;;;1.63;1.53;;;22.30;99.90;;;;;;1929231;72;27095;-90
2023/08/04 11:36:34;;;;;;;2.93;1.60;;;22.30;99.90;;;;;;1905168;75;25232;-90
2023/08/04 11:39:23;;;;;;;1.80;1.47;;;22.30;99.90;;;;;;1909603;75;25227;-90
2023/08/04 11:44:57;;;;;;;1.93;1.70;;;22.30;99.90;;;;;;1942601;72;26978;-89
2023/08/04 11:47:46;;;;;;;2.13;1.30;;;22.20;99.90;;;;;;1918821;75;25267;-90
2023/08/04 11:50:36;;;;;;;1.60;1.50;;;22.20;99.90;;;;;;1922576;73;25306;-89
2023/08/04 11:53:26;;;;;;;2.73;1.60;;;22.10;99.90;;;;;;1940349;73;25264;-90
2023/08/04 11:56:15;;;;;;;1.70;1.60;;;21.90;99.90;;;;;;1936119;73;25232;-90
2023/08/04 11:59:10;;;;;;;3.43;1.50;;;22.00;99.90;;;;;;1938400;73;25227;-89
2023/08/04 12:02:09;;;;;;;4.90;1.60;;;22.30;99.90;;;;;;1926641;73;25659;-89
2023/08/04 12:05:11;;;;;;;2.37;1.80;;;22.00;99.90;;;;;;1929913;73;25205;-89
2023/08/04 12:08:02;;;;;;;2.30;2.10;;;22.10;99.90;;;;;;1922071;73;25320;-90
2023/08/04 12:11:02;;;;;;;2.23;1.97;;;22.20;99.90;;;;;;1926446;73;25814;-89
2023/08/04 12:13:51;;;;;;;2.97;2.00;;;22.30;99.90;;;;;;1920933;73;25296;-90
2023/08/04 12:16:51;;;;;;;2.37;1.90;;;22.40;99.90;;;;;;1920882;73;25239;-89
2023/08/04 12:19:40;;;;;;;5.30;2.80;;;22.20;99.90;;;;;;1923339;73;25300;-89
2023/08/04 12:22:29;;;;;;;4.23;2.80;;;22.20;99.90;;;;;;1913695;73;25183;-89
2023/08/04 12:25:17;;;;;;;4.13;3.00;;;22.30;99.90;;;;;;1929087;73;25277;-87
2023/08/04 12:30:58;;;;;;;5.00;3.07;;;22.60;99.90;;;;;;2022076;69;27007;-90
2023/08/04 12:33:47;;;;;;;4.00;3.00;;;22.40;99.90;;;;;;1998497;71;25242;-90
2023/08/04 12:36:35;;;;;;;3.97;3.00;;;21.90;99.90;;;;;;1992272;71;25666;-90
2023/08/04 12:52:31;;;;;;;5.90;2.33;;;21.20;99.90;;;;;;1869767;75;26991;-89
2023/08/04 12:58:05;;;;;;;2.67;2.30;;;21.10;99.90;;;;;;1941030;72;27149;-90
2023/08/04 13:00:54;;;;;;;6.93;2.20;;;21.10;99.90;;;;;;1879774;75;25674;-89
2023/08/04 13:03:45;;;;;;;5.17;2.50;;;20.90;99.90;;;;;;1906666;75;25697;-89
2023/08/04 13:09:17;;;;;;;6.07;2.23;;;20.50;99.90;;;;;;1963271;71;27064;-90
2023/08/04 13:12:06;;;;;;;7.80;2.20;;;20.40;99.90;;;;;;1936998;73;25337;-90
2023/08/04 13:14:55;;;;;;;2.60;1.93;;;20.40;99.90;;;;;;1948644;72;25261;-90
2023/08/04 13:17:43;;;;;;;2.77;2.00;;;20.60;99.90;;;;;;1950449;73;25200;-90
2023/08/04 13:34:04;;;;;;;2.70;1.90;;;20.40;99.90;;;;;;1940489;72;27119;-90
2023/08/04 13:39:32;;;;;;;3.07;1.53;;;20.60;99.90;;;;;;1927976;72;27012;-90
2023/08/04 13:45:38;;;;;;;1.30;1.20;;;21.10;99.90;;;;;;1987974;71;27053;-90
2023/08/04 13:48:26;;;;;;;1.50;1.40;;;21.70;99.90;;;;;;2016350;69;25154;-90
2023/08/04 13:51:14;;;;;;;1.27;1.27;;;22.20;99.90;;;;;;1989150;70;25229;-90
2023/08/04 13:54:03;;;;;;;1.63;1.47;;;22.40;99.90;;;;;;2021914;70;25256;-90
2023/08/04 13:59:34;;;;;;;3.23;1.50;;;22.50;99.90;;;;;;2017835;69;26963;-90
2023/08/04 14:02:25;;;;;;;1.77;1.40;;;22.90;99.90;;;;;;1978795;72;25731;-90
2023/08/04 14:05:13;;;;;;;1.40;1.30;;;23.10;99.90;;;;;;1979900;72;25219;-90
2023/08/04 14:08:04;;;;;;;1.50;1.40;;;23.00;99.90;;;;;;1971648;72;25243;-90
2023/08/04 14:10:52;;;;;;;1.57;1.30;;;22.80;99.90;;;;;;1976476;72;25220;-89
2023/08/04 14:13:41;;;;;;;2.90;1.40;;;22.70;99.90;;;;;;1975903;72;25150;-89
2023/08/04 14:16:30;;;;;;;1.63;1.53;;;22.20;99.90;;;;;;1970395;72;25258;-90
2023/08/04 14:19:18;;;;;;;1.60;1.50;;;21.60;99.90;;;;;;1982546;70;25326;-90
2023/08/04 14:22:07;;;;;;;1.60;1.50;;;21.30;99.90;;;;;;1969605;71;25761;-90
2023/08/04 14:24:57;;;;;;;2.40;1.40;;;21.10;99.90;;;;;;1976373;72;25694;-90
2023/08/04 14:30:35;;;;;;;1.40;1.20;;;20.70;99.90;;;;;;1942495;72;26975;-89
2023/08/04 14:33:23;;;;;;;1.27;1.27;;;20.10;99.90;;;;;;1923830;73;25178;-89
2023/08/04 14:36:11;;;;;;;1.10;1.10;;;19.90;99.90;;;;;;1938870;73;25707;-90
2023/08/04 14:39:00;;;;;;;1.77;1.50;;;19.90;99.90;;;;;;1920213;72;25809;-90
2023/08/04 14:41:50;;;;;;;1.57;1.30;;;19.90;99.90;;;;;;1927222;72;25256;-90
2023/08/04 14:44:41;;;;;;;1.50;1.40;;;19.60;99.90;;;;;;1930099;72;25684;-90
2023/08/04 14:47:30;;;;;;;2.80;1.50;;;19.20;99.90;;;;;;1922475;72;25707;-90
2023/08/04 14:50:19;;;;;;;1.77;1.50;;;19.00;99.90;;;;;;1887557;74;25167;-90
2023/08/04 14:53:07;;;;;;;3.10;1.30;;;18.50;99.90;;;;;;1872524;75;25298;-90
2023/08/04 14:55:56;;;;;;;1.90;1.30;;;18.30;99.90;;;;;;1887874;75;25289;-90
2023/08/04 15:01:27;;;;;;;2.07;1.27;;;18.10;99.90;;;;;;1922651;72;27771;-90
2023/08/04 15:04:16;;;;;;;1.40;1.30;;;18.00;99.90;;;;;;1858724;76;25287;-90
2023/08/04 15:07:05;;;;;;;1.40;1.20;;;18.00;99.90;;;;;;1843674;76;25291;-90
2023/08/04 15:10:40;;;;;;;1.90;1.10;;;17.90;99.90;;;;;;1859787;76;25251;-89
2023/08/04 15:13:53;;;;;;;4.03;1.40;;;17.80;99.90;;;;;;1815207;76;26246;-89
2023/08/04 15:17:30;;;;;;;1.53;1.43;;;17.70;99.90;;;;;;1841795;76;25777;-89
2023/08/04 15:28:16;;;;;;;7.47;1.60;;;17.70;99.90;;;;;;1853661;76;25660;-88
2023/08/04 15:45:07;;;;;;;2.20;1.47;;;17.30;99.90;;;;;;1979314;72;26824;-88
2023/08/04 16:01:55;;;;;;;2.97;1.90;;;16.90;99.90;;;;;;1923668;72;26440;-90
2023/08/04 16:18:29;;;;;;;3.13;1.63;;;16.80;99.90;;;;;;1900028;74;27104;-88
2023/08/04 17:04:10;;;;;;;3.77;1.50;;;16.30;99.90;;;;;;1942186;72;28761;-89
2023/08/04 17:11:26;;;;;;;2.60;1.70;;;16.30;99.90;;;;;;1975051;71;27013;-90
2023/08/04 17:14:29;;;;;;;1.73;1.63;;;16.20;99.90;;;;;;2003625;70;25650;-90
2023/08/04 17:17:42;;;;;;;2.23;1.83;;;16.20;99.90;;;;;;2014675;70;26324;-90
2023/08/04 17:24:05;;;;;;;4.00;1.60;;;16.10;99.90;;;;;;2004210;70;25252;-89
2023/08/04 17:44:53;;;;;;;4.73;2.13;;;16.10;99.90;;;;;;1798545;78;25835;-88
2023/08/04 18:40:05;;;;;;;3.30;2.37;;;16.00;99.90;;;;;;1817999;77;25283;-89
2023/08/04 18:58:11;;;;;;;3.00;2.17;;;16.20;99.90;;;;;;1886127;74;32157;-90
2023/08/04 19:48:32;;;;;;;9.17;4.20;;;14.90;99.90;;;;;;1908968;73;26454;-89
2023/08/04 20:10:07;;;;;;;7.20;4.13;;;14.70;99.90;;;;;;1921251;73;26883;-89
2023/08/04 20:50:12;;;;;;;8.00;4.53;;;14.10;99.90;;;;;;1945939;72;27061;-89
2023/08/04 20:53:28;;;;;;;5.73;3.73;;;14.10;99.90;;;;;;1864191;76;25260;-89
2023/08/04 20:56:59;;;;;;;6.10;3.73;;;14.10;99.90;;;;;;1931159;73;25251;-89
2023/08/04 20:59:53;;;;;;;8.97;3.53;;;14.10;99.90;;;;;;1931042;73;25536;-88
2023/08/04 21:03:06;;;;;;;5.50;3.10;;;13.90;99.90;;;;;;1916656;73;25670;-89
2023/08/04 21:12:57;;;;;;;6.20;4.03;;;13.90;99.90;;;;;;1992316;68;27826;-89
2023/08/04 21:15:53;;;;;;;8.57;4.07;;;13.90;99.90;;;;;;1933366;71;25307;-89
2023/08/04 21:18:55;;;;;;;8.20;4.20;;;13.80;99.90;;;;;;1922770;73;25262;-89
2023/08/04 21:21:46;;;;;;;7.10;4.23;;;13.60;99.90;;;;;;1984695;70;25177;-88
2023/08/04 21:24:39;;;;;;;8.40;3.93;;;13.50;99.90;;;;;;1981947;70;25249;-89
2023/08/04 21:27:37;;;;;;;6.80;4.70;;;13.50;99.90;;;;;;1938243;72;25293;-89
2023/08/04 21:30:28;;;;;;;9.17;4.50;;;13.60;99.90;;;;;;1910146;72;25276;-89
2023/08/04 21:33:20;;;;;;;9.27;4.53;;;13.60;99.90;;;;;;1895125;73;25240;-89
2023/08/04 21:36:13;;;;;;;7.77;4.10;;;13.80;99.90;;;;;;1964618;71;25278;-89
2023/08/04 21:39:07;;;;;;;10.37;5.27;;;13.90;99.90;;;;;;1994357;70;25740;-89
2023/08/04 21:42:36;;;;;;;10.80;5.07;;;14.00;99.90;;;;;;1960688;70;25225;-89
2023/08/04 21:45:30;;;;;;;11.47;4.47;;;14.00;99.90;;;;;;1960279;70;25202;-89
2023/08/04 21:48:24;;;;;;;9.60;5.90;;;14.10;99.90;;;;;;1955868;71;25199;-89
2023/08/04 21:54:35;;;;;;;11.73;5.07;;;14.20;99.90;;;;;;1905178;74;27181;-89
2023/08/04 21:57:46;;;;;;;9.67;5.03;;;14.20;99.90;;;;;;1909900;75;25230;-89
2023/08/04 22:00:42;;;;;;;9.67;5.17;;;14.20;99.90;;;;;;1895517;75;25614;-89
2023/08/04 22:03:55;;;;;;;7.77;5.00;;;14.30;99.90;;;;;;1895764;75;25279;-89
2023/08/04 22:06:46;;;;;;;10.07;5.20;;;14.30;99.90;;;;;;1905401;75;25780;-89
2023/08/04 22:10:09;;;;;;;11.83;5.90;;;14.40;99.90;;;;;;1901703;75;25691;-89
2023/08/04 22:16:30;;;;;;;9.70;5.63;;;14.30;99.90;;;;;;1896235;75;25913;-89
2023/08/04 22:19:26;;;;;;;8.93;5.53;;;14.30;99.90;;;;;;1898969;75;25296;-89
2023/08/04 22:22:40;;;;;;;12.07;6.13;;;14.30;99.90;;;;;;1898403;74;25268;-88
2023/08/04 22:26:04;;;;;;;12.50;5.30;;;14.30;99.90;;;;;;1881937;75;25306;-88
2023/08/04 22:29:10;;;;;;;8.77;5.23;;;14.20;99.90;;;;;;1896048;75;25240;-89
2023/08/04 22:34:59;;;;;;;8.37;4.93;;;14.20;99.90;;;;;;1945897;72;27056;-88
2023/08/04 22:37:53;;;;;;;8.57;5.57;;;14.20;99.90;;;;;;1916411;73;25693;-88
2023/08/04 22:40:46;;;;;;;9.67;4.93;;;14.10;99.90;;;;;;1910501;73;25326;-88
2023/08/04 22:43:39;;;;;;;16.83;5.67;;;14.00;99.90;;;;;;1916191;74;25230;-88
2023/08/04 22:46:29;;;;;;;10.50;5.17;;;14.00;99.90;;;;;;1884813;74;25680;-88
2023/08/04 23:23:13;;;;;;;4.67;3.60;;;14.50;99.90;;;;;;1883311;74;28144;-89
2023/08/04 23:26:31;;;;;;;5.10;3.30;;;14.70;99.90;;;;;;1867702;76;25861;-88
2023/08/04 23:32:20;;;;;;;4.60;2.50;;;14.70;99.90;;;;;;1951078;72;27013;-88
2023/08/04 23:51:17;;;;;;;7.00;3.30;;;14.60;99.90;;;;;;1905640;73;26333;-91
